Ferndale, Michigan
Current Conditions -  °F | °C
As of 6:53 PM on Saturday 25 Oct 2014 (Local Time) from KDET Reporting Station
Clear Clear  
Wind Chill: 66°   Ceiling: Unl
Heat Index: 66°   Visibility: 10mi
Dew Point: 27°   Wind: 17mph
Humidity: 23%   Direction: 290°WNW
Pressure: 29.75"   Gusts: 29mph
Location:  42.46°N, 83.13°W
Report Text: KDET 252253Z 29015G25KT 10SM CLR 19/M03 A2975 RMK AO2 PK WND 30027/2201 SLP072 T01891028
Loading
Personal Weather Stations






























Interactive Weather Map
Tropical Storm Tracking
New forecast layout! Learn more

10-Day Weather Forecast

Advertisements
Track Severe Weather on mobile